sensor_id;sensor_type;location;lat;lon;timestamp;pressure;altitude;pressure_sealevel;temperature;humidity
8717;BME280;4395;48.554;8.820;2023-05-21T00:01:44;95420.81;;;14.44;100.00
8717;BME280;4395;48.554;8.820;2023-05-21T00:03:48;95516.06;;;15.07;100.00
8717;BME280;4395;48.554;8.820;2023-05-21T00:05:52;95442.53;;;14.58;100.00
8717;BME280;4395;48.554;8.820;2023-05-21T00:07:56;95513.00;;;15.14;100.00
8717;BME280;4395;48.554;8.820;2023-05-21T00:09:59;95502.59;;;15.02;100.00
8717;BME280;4395;48.554;8.820;2023-05-21T00:12:02;95388.00;;;14.51;100.00
8717;BME280;4395;48.554;8.820;2023-05-21T00:14:05;95507.44;;;15.05;100.00
8717;BME280;4395;48.554;8.820;2023-05-21T00:16:08;95508.75;;;15.08;100.00
8717;BME280;4395;48.554;8.820;2023-05-21T00:18:11;95505.69;;;15.15;100.00
8717;BME280;4395;48.554;8.820;2023-05-21T00:20:14;95502.19;;;15.33;100.00
8717;BME280;4395;48.554;8.820;2023-05-21T00:22:17;95506.72;;;15.19;100.00
8717;BME280;4395;48.554;8.820;2023-05-21T00:24:21;95501.16;;;15.29;100.00
8717;BME280;4395;48.554;8.820;2023-05-21T00:26:24;95501.16;;;15.10;100.00
8717;BME280;4395;48.554;8.820;2023-05-21T00:28:30;95506.59;;;15.29;100.00
8717;BME280;4395;48.554;8.820;2023-05-21T00:30:33;95504.03;;;15.37;100.00
8717;BME280;4395;48.554;8.820;2023-05-21T00:32:36;95501.31;;;15.19;100.00
8717;BME280;4395;48.554;8.820;2023-05-21T00:34:39;95490.69;;;15.22;100.00
8717;BME280;4395;48.554;8.820;2023-05-21T00:36:43;95451.72;;;14.80;100.00
8717;BME280;4395;48.554;8.820;2023-05-21T00:38:46;95452.75;;;14.85;100.00
8717;BME280;4395;48.554;8.820;2023-05-21T00:40:50;95492.66;;;15.17;100.00
8717;BME280;4395;48.554;8.820;2023-05-21T00:42:53;95489.09;;;15.21;100.00
8717;BME280;4395;48.554;8.820;2023-05-21T00:44:58;95485.28;;;15.22;100.00
8717;BME280;4395;48.554;8.820;2023-05-21T00:47:01;95479.13;;;15.17;100.00
8717;BME280;4395;48.554;8.820;2023-05-21T00:49:04;95487.63;;;15.29;100.00
8717;BME280;4395;48.554;8.820;2023-05-21T00:51:07;95472.19;;;15.10;100.00
8717;BME280;4395;48.554;8.820;2023-05-21T00:53:10;95481.75;;;15.03;100.00
8717;BME280;4395;48.554;8.820;2023-05-21T00:55:15;95490.91;;;15.07;100.00
8717;BME280;4395;48.554;8.820;2023-05-21T00:57:21;95486.34;;;15.02;100.00
8717;BME280;4395;48.554;8.820;2023-05-21T00:59:24;95486.81;;;15.09;100.00
8717;BME280;4395;48.554;8.820;2023-05-21T01:01:27;95490.94;;;15.26;100.00
8717;BME280;4395;48.554;8.820;2023-05-21T01:03:34;95473.66;;;15.22;100.00
8717;BME280;4395;48.554;8.820;2023-05-21T01:05:41;95479.06;;;15.22;100.00
8717;BME280;4395;48.554;8.820;2023-05-21T01:07:45;95475.63;;;15.16;100.00
8717;BME280;4395;48.554;8.820;2023-05-21T01:09:48;95486.69;;;15.20;100.00
8717;BME280;4395;48.554;8.820;2023-05-21T01:11:51;95485.19;;;15.08;100.00
8717;BME280;4395;48.554;8.820;2023-05-21T01:13:56;95492.72;;;15.11;100.00
8717;BME280;4395;48.554;8.820;2023-05-21T01:15:59;95475.50;;;15.26;100.00
8717;BME280;4395;48.554;8.820;2023-05-21T01:18:02;95481.25;;;15.20;100.00
8717;BME280;4395;48.554;8.820;2023-05-21T01:20:07;95481.63;;;15.32;100.00
8717;BME280;4395;48.554;8.820;2023-05-21T01:22:11;95477.97;;;15.41;100.00
8717;BME280;4395;48.554;8.820;2023-05-21T01:24:17;95478.72;;;15.47;100.00
8717;BME280;4395;48.554;8.820;2023-05-21T01:26:20;95457.19;;;15.37;100.00
8717;BME280;4395;48.554;8.820;2023-05-21T01:28:23;95477.53;;;15.53;100.00
8717;BME280;4395;48.554;8.820;2023-05-21T01:30:26;95480.63;;;15.47;100.00
8717;BME280;4395;48.554;8.820;2023-05-21T01:32:32;95397.06;;;15.02;100.00
8717;BME280;4395;48.554;8.820;2023-05-21T01:34:39;95473.00;;;15.49;100.00
8717;BME280;4395;48.554;8.820;2023-05-21T01:36:49;95467.59;;;15.49;100.00
8717;BME280;4395;48.554;8.820;2023-05-21T01:38:56;95475.63;;;15.35;100.00
8717;BME280;4395;48.554;8.820;2023-05-21T01:41:09;95467.22;;;15.36;100.00
8717;BME280;4395;48.554;8.820;2023-05-21T01:43:12;95465.53;;;15.40;100.00
8717;BME280;4395;48.554;8.820;2023-05-21T01:45:17;95464.16;;;15.43;100.00
8717;BME280;4395;48.554;8.820;2023-05-21T01:47:21;95468.19;;;15.45;100.00
8717;BME280;4395;48.554;8.820;2023-05-21T01:49:26;95461.94;;;15.45;100.00
8717;BME280;4395;48.554;8.820;2023-05-21T01:51:30;95464.56;;;15.12;100.00
8717;BME280;4395;48.554;8.820;2023-05-21T01:53:32;95466.41;;;15.17;100.00
8717;BME280;4395;48.554;8.820;2023-05-21T01:55:36;95467.16;;;15.23;100.00
8717;BME280;4395;48.554;8.820;2023-05-21T01:57:43;95372.19;;;14.63;100.00
8717;BME280;4395;48.554;8.820;2023-05-21T01:59:46;95455.06;;;15.34;100.00
8717;BME280;4395;48.554;8.820;2023-05-21T02:01:49;95454.28;;;15.33;100.00
8717;BME280;4395;48.554;8.820;2023-05-21T02:03:52;95456.69;;;15.35;100.00
8717;BME280;4395;48.554;8.820;2023-05-21T02:05:55;95453.47;;;15.33;100.00
8717;BME280;4395;48.554;8.820;2023-05-21T02:07:58;95459.47;;;15.30;100.00
8717;BME280;4395;48.554;8.820;2023-05-21T02:10:02;95448.78;;;15.20;100.00
8717;BME280;4395;48.554;8.820;2023-05-21T02:12:05;95451.19;;;15.02;100.00
8717;BME280;4395;48.554;8.820;2023-05-21T02:14:10;95440.16;;;14.75;100.00
8717;BME280;4395;48.554;8.820;2023-05-21T02:16:14;95454.06;;;14.44;100.00
8717;BME280;4395;48.554;8.820;2023-05-21T02:18:17;95453.53;;;14.42;100.00
8717;BME280;4395;48.554;8.820;2023-05-21T02:20:22;95452.47;;;14.38;100.00
8717;BME280;4395;48.554;8.820;2023-05-21T02:22:24;95439.78;;;13.81;100.00
8717;BME280;4395;48.554;8.820;2023-05-21T02:24:27;95457.94;;;14.04;100.00
8717;BME280;4395;48.554;8.820;2023-05-21T02:26:30;95449.13;;;14.23;100.00
8717;BME280;4395;48.554;8.820;2023-05-21T02:28:33;95447.78;;;14.20;100.00
8717;BME280;4395;48.554;8.820;2023-05-21T02:30:37;95441.25;;;14.26;100.00
8717;BME280;4395;48.554;8.820;2023-05-21T02:32:41;95374.91;;;13.86;100.00
8717;BME280;4395;48.554;8.820;2023-05-21T02:34:45;95446.06;;;14.29;100.00
8717;BME280;4395;48.554;8.820;2023-05-21T02:36:48;95426.28;;;14.10;100.00
8717;BME280;4395;48.554;8.820;2023-05-21T02:38:52;95440.81;;;14.14;100.00
8717;BME280;4395;48.554;8.820;2023-05-21T02:40:58;95443.06;;;14.07;100.00
8717;BME280;4395;48.554;8.820;2023-05-21T02:43:01;95436.75;;;14.16;100.00
8717;BME280;4395;48.554;8.820;2023-05-21T02:45:06;95437.59;;;14.12;100.00
8717;BME280;4395;48.554;8.820;2023-05-21T02:47:12;95437.03;;;14.15;100.00
8717;BME280;4395;48.554;8.820;2023-05-21T02:49:15;95433.97;;;13.98;100.00
8717;BME280;4395;48.554;8.820;2023-05-21T02:51:20;95436.13;;;13.96;100.00
8717;BME280;4395;48.554;8.820;2023-05-21T02:53:23;95429.13;;;13.95;100.00
8717;BME280;4395;48.554;8.820;2023-05-21T02:55:27;95438.56;;;13.97;100.00
8717;BME280;4395;48.554;8.820;2023-05-21T02:57:30;95432.59;;;14.00;100.00
8717;BME280;4395;48.554;8.820;2023-05-21T02:59:32;95416.13;;;13.97;100.00
8717;BME280;4395;48.554;8.820;2023-05-21T03:01:35;95436.22;;;14.14;100.00
8717;BME280;4395;48.554;8.820;2023-05-21T03:03:39;95447.19;;;13.99;100.00
8717;BME280;4395;48.554;8.820;2023-05-21T03:05:42;95438.47;;;14.07;100.00
8717;BME280;4395;48.554;8.820;2023-05-21T03:07:46;95447.31;;;14.13;100.00
8717;BME280;4395;48.554;8.820;2023-05-21T03:09:49;95318.47;;;13.32;100.00
8717;BME280;4395;48.554;8.820;2023-05-21T03:11:52;95433.44;;;13.96;100.00
8717;BME280;4395;48.554;8.820;2023-05-21T03:13:55;95371.31;;;13.38;100.00
8717;BME280;4395;48.554;8.820;2023-05-21T03:15:57;95438.59;;;13.63;100.00
8717;BME280;4395;48.554;8.820;2023-05-21T03:18:00;95436.16;;;13.62;100.00
8717;BME280;4395;48.554;8.820;2023-05-21T03:20:06;95432.44;;;13.87;100.00
8717;BME280;4395;48.554;8.820;2023-05-21T03:22:10;95425.59;;;13.65;100.00
8717;BME280;4395;48.554;8.820;2023-05-21T03:24:13;95281.25;;;12.89;100.00
8717;BME280;4395;48.554;8.820;2023-05-21T03:26:16;95428.19;;;13.80;100.00
8717;BME280;4395;48.554;8.820;2023-05-21T03:28:18;95428.84;;;13.96;100.00
8717;BME280;4395;48.554;8.820;2023-05-21T03:30:23;95431.41;;;13.82;100.00
8717;BME280;4395;48.554;8.820;2023-05-21T03:32:50;95410.97;;;13.71;100.00
8717;BME280;4395;48.554;8.820;2023-05-21T03:34:52;95434.00;;;13.64;100.00
8717;BME280;4395;48.554;8.820;2023-05-21T03:36:58;95430.97;;;13.70;100.00
8717;BME280;4395;48.554;8.820;2023-05-21T03:39:01;95437.66;;;13.78;100.00
8717;BME280;4395;48.554;8.820;2023-05-21T03:41:07;95429.06;;;13.71;100.00
8717;BME280;4395;48.554;8.820;2023-05-21T03:43:10;95427.59;;;13.55;100.00
8717;BME280;4395;48.554;8.820;2023-05-21T03:45:13;95425.25;;;13.43;100.00
8717;BME280;4395;48.554;8.820;2023-05-21T03:47:35;95386.50;;;13.29;100.00
8717;BME280;4395;48.554;8.820;2023-05-21T03:49:40;95435.28;;;13.71;100.00
8717;BME280;4395;48.554;8.820;2023-05-21T03:51:44;95371.06;;;13.34;100.00
8717;BME280;4395;48.554;8.820;2023-05-21T03:53:51;95399.81;;;13.49;100.00
8717;BME280;4395;48.554;8.820;2023-05-21T03:55:53;95432.69;;;13.56;100.00
8717;BME280;4395;48.554;8.820;2023-05-21T03:57:58;95434.22;;;13.67;100.00
8717;BME280;4395;48.554;8.820;2023-05-21T04:00:01;95446.72;;;13.92;100.00
8717;BME280;4395;48.554;8.820;2023-05-21T04:02:05;95446.31;;;14.04;100.00
8717;BME280;4395;48.554;8.820;2023-05-21T04:04:08;95441.09;;;14.12;100.00
8717;BME280;4395;48.554;8.820;2023-05-21T04:06:11;95441.34;;;14.16;100.00
8717;BME280;4395;48.554;8.820;2023-05-21T04:08:14;95417.66;;;14.08;100.00
8717;BME280;4395;48.554;8.820;2023-05-21T04:10:18;95440.44;;;14.26;100.00
8717;BME280;4395;48.554;8.820;2023-05-21T04:12:22;95440.53;;;14.15;100.00
8717;BME280;4395;48.554;8.820;2023-05-21T04:14:25;95440.19;;;14.22;100.00
8717;BME280;4395;48.554;8.820;2023-05-21T04:16:28;95449.59;;;14.30;100.00
8717;BME280;4395;48.554;8.820;2023-05-21T04:18:31;95453.13;;;14.25;100.00
8717;BME280;4395;48.554;8.820;2023-05-21T04:20:35;95450.13;;;14.03;100.00
8717;BME280;4395;48.554;8.820;2023-05-21T04:22:38;95414.88;;;13.55;100.00
8717;BME280;4395;48.554;8.820;2023-05-21T04:24:42;95444.94;;;13.77;100.00
8717;BME280;4395;48.554;8.820;2023-05-21T04:26:52;95445.50;;;13.74;100.00
8717;BME280;4395;48.554;8.820;2023-05-21T04:28:56;95451.31;;;13.58;100.00
8717;BME280;4395;48.554;8.820;2023-05-21T04:31:00;95453.09;;;13.72;100.00
8717;BME280;4395;48.554;8.820;2023-05-21T04:33:03;95442.94;;;13.59;100.00
8717;BME280;4395;48.554;8.820;2023-05-21T04:35:08;95459.53;;;13.76;100.00
8717;BME280;4395;48.554;8.820;2023-05-21T04:37:11;95464.63;;;13.83;100.00
8717;BME280;4395;48.554;8.820;2023-05-21T04:39:14;95458.31;;;13.93;100.00
8717;BME280;4395;48.554;8.820;2023-05-21T04:41:17;95469.59;;;14.00;100.00
8717;BME280;4395;48.554;8.820;2023-05-21T04:43:23;95463.38;;;13.99;100.00
8717;BME280;4395;48.554;8.820;2023-05-21T04:45:29;95472.88;;;13.97;100.00
8717;BME280;4395;48.554;8.820;2023-05-21T04:47:33;95467.31;;;14.12;100.00
8717;BME280;4395;48.554;8.820;2023-05-21T04:49:37;95473.19;;;14.19;100.00
8717;BME280;4395;48.554;8.820;2023-05-21T04:51:40;95451.78;;;13.99;100.00
8717;BME280;4395;48.554;8.820;2023-05-21T04:53:43;95479.75;;;14.13;100.00
8717;BME280;4395;48.554;8.820;2023-05-21T04:55:46;95473.66;;;14.26;100.00
8717;BME280;4395;48.554;8.820;2023-05-21T04:57:49;95478.09;;;14.46;100.00
8717;BME280;4395;48.554;8.820;2023-05-21T04:59:54;95405.47;;;14.10;100.00
8717;BME280;4395;48.554;8.820;2023-05-21T05:01:58;95477.88;;;14.37;100.00
8717;BME280;4395;48.554;8.820;2023-05-21T05:04:01;95481.53;;;14.52;100.00
8717;BME280;4395;48.554;8.820;2023-05-21T05:06:05;95492.13;;;14.72;100.00
8717;BME280;4395;48.554;8.820;2023-05-21T05:08:09;95455.25;;;14.57;100.00
8717;BME280;4395;48.554;8.820;2023-05-21T05:10:16;95496.28;;;14.88;100.00
8717;BME280;4395;48.554;8.820;2023-05-21T05:12:19;95497.44;;;14.82;100.00
8717;BME280;4395;48.554;8.820;2023-05-21T05:14:21;95485.47;;;14.88;100.00
8717;BME280;4395;48.554;8.820;2023-05-21T05:16:26;95493.44;;;14.98;100.00
8717;BME280;4395;48.554;8.820;2023-05-21T05:18:30;95488.75;;;14.85;100.00
8717;BME280;4395;48.554;8.820;2023-05-21T05:20:34;95456.69;;;14.73;100.00
8717;BME280;4395;48.554;8.820;2023-05-21T05:22:39;95495.38;;;15.17;100.00
8717;BME280;4395;48.554;8.820;2023-05-21T05:24:42;95498.22;;;15.06;100.00
8717;BME280;4395;48.554;8.820;2023-05-21T05:26:45;95495.44;;;15.11;100.00
8717;BME280;4395;48.554;8.820;2023-05-21T05:28:47;95489.19;;;14.92;100.00
8717;BME280;4395;48.554;8.820;2023-05-21T05:30:50;95491.28;;;15.19;100.00
8717;BME280;4395;48.554;8.820;2023-05-21T05:32:59;95488.59;;;15.38;100.00
8717;BME280;4395;48.554;8.820;2023-05-21T05:35:05;95483.63;;;15.45;100.00
8717;BME280;4395;48.554;8.820;2023-05-21T05:37:08;95485.22;;;15.46;100.00
8717;BME280;4395;48.554;8.820;2023-05-21T05:39:11;95482.75;;;15.50;100.00
8717;BME280;4395;48.554;8.820;2023-05-21T05:41:14;95464.06;;;15.48;100.00
8717;BME280;4395;48.554;8.820;2023-05-21T05:43:17;95473.78;;;15.73;100.00
8717;BME280;4395;48.554;8.820;2023-05-21T05:45:20;95481.97;;;15.68;100.00
8717;BME280;4395;48.554;8.820;2023-05-21T05:47:23;95446.16;;;15.52;100.00
8717;BME280;4395;48.554;8.820;2023-05-21T05:49:27;95483.03;;;15.48;100.00
8717;BME280;4395;48.554;8.820;2023-05-21T05:51:30;95480.53;;;15.52;100.00
8717;BME280;4395;48.554;8.820;2023-05-21T05:53:33;95488.31;;;15.58;100.00
8717;BME280;4395;48.554;8.820;2023-05-21T05:55:36;95481.41;;;15.47;100.00
8717;BME280;4395;48.554;8.820;2023-05-21T05:57:39;95484.72;;;15.44;100.00
8717;BME280;4395;48.554;8.820;2023-05-21T05:59:48;95493.84;;;15.48;100.00
8717;BME280;4395;48.554;8.820;2023-05-21T06:01:50;95492.66;;;15.78;100.00
8717;BME280;4395;48.554;8.820;2023-05-21T06:03:54;95477.97;;;15.98;100.00
8717;BME280;4395;48.554;8.820;2023-05-21T06:05:59;95478.53;;;16.14;100.00
8717;BME280;4395;48.554;8.820;2023-05-21T06:08:04;95488.75;;;16.03;100.00
8717;BME280;4395;48.554;8.820;2023-05-21T06:10:08;95492.88;;;16.14;100.00
8717;BME280;4395;48.554;8.820;2023-05-21T06:12:11;95496.25;;;16.38;100.00
8717;BME280;4395;48.554;8.820;2023-05-21T06:14:16;95467.22;;;16.39;100.00
8717;BME280;4395;48.554;8.820;2023-05-21T06:16:19;95493.00;;;16.69;100.00
8717;BME280;4395;48.554;8.820;2023-05-21T06:18:22;95493.31;;;16.67;100.00
8717;BME280;4395;48.554;8.820;2023-05-21T06:20:24;95487.78;;;16.73;100.00
8717;BME280;4395;48.554;8.820;2023-05-21T06:22:29;95494.94;;;16.82;100.00
8717;BME280;4395;48.554;8.820;2023-05-21T06:24:32;95496.31;;;16.66;100.00
8717;BME280;4395;48.554;8.820;2023-05-21T06:26:36;95497.44;;;16.92;100.00
8717;BME280;4395;48.554;8.820;2023-05-21T06:28:39;95498.63;;;17.14;100.00
8717;BME280;4395;48.554;8.820;2023-05-21T06:30:43;95498.84;;;16.90;100.00
8717;BME280;4395;48.554;8.820;2023-05-21T06:32:46;95504.78;;;16.78;100.00
8717;BME280;4395;48.554;8.820;2023-05-21T06:34:50;95371.31;;;16.35;100.00
8717;BME280;4395;48.554;8.820;2023-05-21T06:36:57;95495.50;;;17.20;100.00
8717;BME280;4395;48.554;8.820;2023-05-21T06:39:04;95501.63;;;17.40;100.00
8717;BME280;4395;48.554;8.820;2023-05-21T06:41:08;95502.69;;;17.52;100.00
8717;BME280;4395;48.554;8.820;2023-05-21T06:43:26;95489.41;;;17.51;100.00
8717;BME280;4395;48.554;8.820;2023-05-21T06:45:48;95408.78;;;16.47;100.00
8717;BME280;4395;48.554;8.820;2023-05-21T06:48:01;95442.47;;;16.73;100.00
8717;BME280;4395;48.554;8.820;2023-05-21T06:50:04;95500.28;;;17.51;100.00
8717;BME280;4395;48.554;8.820;2023-05-21T06:52:08;95435.50;;;17.44;100.00
8717;BME280;4395;48.554;8.820;2023-05-21T06:54:13;95499.81;;;18.07;100.00
8717;BME280;4395;48.554;8.820;2023-05-21T06:56:16;95491.31;;;18.22;100.00
8717;BME280;4395;48.554;8.820;2023-05-21T06:58:20;95491.28;;;18.45;100.00
8717;BME280;4395;48.554;8.820;2023-05-21T07:00:23;95469.28;;;18.33;100.00
8717;BME280;4395;48.554;8.820;2023-05-21T07:02:26;95497.44;;;18.59;100.00
8717;BME280;4395;48.554;8.820;2023-05-21T07:04:29;95495.94;;;18.75;100.00
8717;BME280;4395;48.554;8.820;2023-05-21T07:06:32;95490.84;;;18.82;100.00
8717;BME280;4395;48.554;8.820;2023-05-21T07:08:37;95492.56;;;18.70;100.00
8717;BME280;4395;48.554;8.820;2023-05-21T07:10:41;95499.44;;;18.67;100.00
8717;BME280;4395;48.554;8.820;2023-05-21T07:12:45;95501.50;;;19.58;100.00
8717;BME280;4395;48.554;8.820;2023-05-21T07:14:48;95474.69;;;20.29;100.00
8717;BME280;4395;48.554;8.820;2023-05-21T07:16:51;95497.63;;;21.01;100.00
8717;BME280;4395;48.554;8.820;2023-05-21T07:18:54;95501.09;;;21.48;97.56
8717;BME280;4395;48.554;8.820;2023-05-21T07:20:57;95503.41;;;21.67;95.43
8717;BME280;4395;48.554;8.820;2023-05-21T07:23:01;95510.41;;;21.97;92.88
8717;BME280;4395;48.554;8.820;2023-05-21T07:25:05;95491.88;;;22.24;90.84
8717;BME280;4395;48.554;8.820;2023-05-21T07:27:09;95493.50;;;22.37;88.74
8717;BME280;4395;48.554;8.820;2023-05-21T07:29:27;95494.94;;;22.55;87.13
8717;BME280;4395;48.554;8.820;2023-05-21T07:31:30;95500.22;;;21.86;90.92
8717;BME280;4395;48.554;8.820;2023-05-21T07:33:34;95484.38;;;22.33;88.22
8717;BME280;4395;48.554;8.820;2023-05-21T07:35:37;95496.47;;;21.90;89.96
8717;BME280;4395;48.554;8.820;2023-05-21T07:37:40;95499.47;;;21.26;94.64
8717;BME280;4395;48.554;8.820;2023-05-21T07:39:43;95493.47;;;20.95;95.98
8717;BME280;4395;48.554;8.820;2023-05-21T07:41:46;95484.47;;;20.47;100.00
8717;BME280;4395;48.554;8.820;2023-05-21T07:43:50;95488.16;;;20.43;100.00
8717;BME280;4395;48.554;8.820;2023-05-21T07:45:54;95410.88;;;19.96;100.00
8717;BME280;4395;48.554;8.820;2023-05-21T07:47:57;95483.97;;;20.37;100.00
8717;BME280;4395;48.554;8.820;2023-05-21T07:50:01;95483.66;;;20.30;100.00
8717;BME280;4395;48.554;8.820;2023-05-21T07:52:05;95485.41;;;19.48;100.00
8717;BME280;4395;48.554;8.820;2023-05-21T07:54:08;95444.41;;;19.53;100.00
8717;BME280;4395;48.554;8.820;2023-05-21T07:56:11;95480.97;;;20.04;100.00
8717;BME280;4395;48.554;8.820;2023-05-21T07:58:14;95486.22;;;19.40;100.00
8717;BME280;4395;48.554;8.820;2023-05-21T08:00:22;95481.47;;;19.63;100.00
8717;BME280;4395;48.554;8.820;2023-05-21T08:02:28;95487.00;;;19.40;100.00
8717;BME280;4395;48.554;8.820;2023-05-21T08:04:31;95485.94;;;19.58;100.00
8717;BME280;4395;48.554;8.820;2023-05-21T08:06:35;95482.84;;;19.43;100.00
8717;BME280;4395;48.554;8.820;2023-05-21T08:08:40;95481.41;;;19.45;100.00
8717;BME280;4395;48.554;8.820;2023-05-21T08:10:43;95372.09;;;19.21;100.00
8717;BME280;4395;48.554;8.820;2023-05-21T08:12:46;95480.94;;;20.30;100.00
8717;BME280;4395;48.554;8.820;2023-05-21T08:14:49;95464.25;;;20.40;100.00
8717;BME280;4395;48.554;8.820;2023-05-21T08:16:54;95454.91;;;20.49;100.00
8717;BME280;4395;48.554;8.820;2023-05-21T08:18:57;95488.38;;;20.84;100.00
8717;BME280;4395;48.554;8.820;2023-05-21T08:21:00;95481.97;;;20.80;98.97
8717;BME280;4395;48.554;8.820;2023-05-21T08:23:03;95482.38;;;20.36;100.00
8717;BME280;4395;48.554;8.820;2023-05-21T08:25:13;95483.66;;;20.47;100.00
8717;BME280;4395;48.554;8.820;2023-05-21T08:27:17;95485.94;;;20.92;99.09
8717;BME280;4395;48.554;8.820;2023-05-21T08:29:19;95487.50;;;21.01;97.96
8717;BME280;4395;48.554;8.820;2023-05-21T08:31:22;95468.28;;;20.89;97.60
8717;BME280;4395;48.554;8.820;2023-05-21T08:33:26;95492.16;;;21.39;97.27
8717;BME280;4395;48.554;8.820;2023-05-21T08:35:29;95484.84;;;21.52;95.45
8717;BME280;4395;48.554;8.820;2023-05-21T08:37:49;95493.47;;;21.33;97.63
8717;BME280;4395;48.554;8.820;2023-05-21T08:40:00;95489.13;;;21.82;94.37
8717;BME280;4395;48.554;8.820;2023-05-21T08:42:14;95498.72;;;21.46;93.86
8717;BME280;4395;48.554;8.820;2023-05-21T08:44:42;95392.50;;;21.36;93.08
8717;BME280;4395;48.554;8.820;2023-05-21T08:46:49;95488.16;;;22.07;91.39
8717;BME280;4395;48.554;8.820;2023-05-21T08:48:54;95491.28;;;22.18;87.08
8717;BME280;4395;48.554;8.820;2023-05-21T08:50:58;95494.19;;;22.34;87.85
8717;BME280;4395;48.554;8.820;2023-05-21T08:53:05;95487.28;;;22.16;88.41
8717;BME280;4395;48.554;8.820;2023-05-21T08:55:29;95483.09;;;22.30;86.93
8717;BME280;4395;48.554;8.820;2023-05-21T08:57:33;95488.88;;;21.75;86.45
8717;BME280;4395;48.554;8.820;2023-05-21T08:59:36;95490.13;;;21.57;89.83
8717;BME280;4395;48.554;8.820;2023-05-21T09:01:50;95490.09;;;22.07;88.28
8717;BME280;4395;48.554;8.820;2023-05-21T09:04:02;95485.66;;;22.14;85.45
8717;BME280;4395;48.554;8.820;2023-05-21T09:06:22;95479.38;;;22.35;82.42
8717;BME280;4395;48.554;8.820;2023-05-21T09:08:30;95477.19;;;22.73;82.91
8717;BME280;4395;48.554;8.820;2023-05-21T09:10:46;95413.94;;;22.54;81.36
8717;BME280;4395;48.554;8.820;2023-05-21T09:12:50;95489.06;;;22.77;81.81
8717;BME280;4395;48.554;8.820;2023-05-21T09:14:53;95497.13;;;23.19;82.07
8717;BME280;4395;48.554;8.820;2023-05-21T09:17:02;95490.72;;;23.52;79.68
8717;BME280;4395;48.554;8.820;2023-05-21T09:19:06;95490.28;;;23.74;77.51
8717;BME280;4395;48.554;8.820;2023-05-21T09:21:23;95438.88;;;22.86;80.64
8717;BME280;4395;48.554;8.820;2023-05-21T09:23:29;95489.34;;;22.97;82.89
8717;BME280;4395;48.554;8.820;2023-05-21T09:25:33;95498.47;;;23.13;82.78
8717;BME280;4395;48.554;8.820;2023-05-21T09:27:44;95495.06;;;22.59;88.50
8717;BME280;4395;48.554;8.820;2023-05-21T09:29:47;95493.69;;;22.98;84.68
8717;BME280;4395;48.554;8.820;2023-05-21T09:31:50;95487.78;;;22.75;85.73
8717;BME280;4395;48.554;8.820;2023-05-21T09:33:55;95486.59;;;22.85;85.27
8717;BME280;4395;48.554;8.820;2023-05-21T09:36:01;95490.16;;;23.09;85.91
8717;BME280;4395;48.554;8.820;2023-05-21T09:38:07;95493.78;;;22.89;85.46
8717;BME280;4395;48.554;8.820;2023-05-21T09:40:11;95488.53;;;22.96;86.83
8717;BME280;4395;48.554;8.820;2023-05-21T09:42:19;95465.03;;;23.56;82.92
8717;BME280;4395;48.554;8.820;2023-05-21T09:44:22;95478.00;;;24.24;78.60
8717;BME280;4395;48.554;8.820;2023-05-21T09:46:25;95480.66;;;24.48;76.84
8717;BME280;4395;48.554;8.820;2023-05-21T09:48:32;95481.69;;;24.87;75.26
8717;BME280;4395;48.554;8.820;2023-05-21T09:50:36;95429.47;;;24.72;73.43
8717;BME280;4395;48.554;8.820;2023-05-21T09:52:41;95487.31;;;25.22;72.99
8717;BME280;4395;48.554;8.820;2023-05-21T09:54:43;95476.06;;;25.12;72.61
8717;BME280;4395;48.554;8.820;2023-05-21T09:56:46;95478.75;;;25.43;71.79
8717;BME280;4395;48.554;8.820;2023-05-21T09:58:52;95477.22;;;25.61;70.02
8717;BME280;4395;48.554;8.820;2023-05-21T10:00:56;95477.97;;;24.95;71.17
8717;BME280;4395;48.554;8.820;2023-05-21T10:03:00;95485.84;;;24.65;70.75
8717;BME280;4395;48.554;8.820;2023-05-21T10:05:04;95488.22;;;24.67;72.15
8717;BME280;4395;48.554;8.820;2023-05-21T10:07:10;95484.78;;;24.86;73.55
8717;BME280;4395;48.554;8.820;2023-05-21T10:09:17;95477.34;;;25.33;69.09
8717;BME280;4395;48.554;8.820;2023-05-21T10:11:22;95475.69;;;25.29;70.30
8717;BME280;4395;48.554;8.820;2023-05-21T10:13:25;95478.72;;;25.59;68.24
8717;BME280;4395;48.554;8.820;2023-05-21T10:15:30;95449.72;;;25.61;67.92
8717;BME280;4395;48.554;8.820;2023-05-21T10:17:34;95471.69;;;24.95;73.22
8717;BME280;4395;48.554;8.820;2023-05-21T10:19:38;95474.81;;;25.25;71.91
8717;BME280;4395;48.554;8.820;2023-05-21T10:21:43;95465.03;;;25.27;69.69
8717;BME280;4395;48.554;8.820;2023-05-21T10:23:47;95420.69;;;25.64;68.53
8717;BME280;4395;48.554;8.820;2023-05-21T10:25:52;95353.97;;;25.67;63.58
8717;BME280;4395;48.554;8.820;2023-05-21T10:27:56;95364.38;;;25.77;61.52
8717;BME280;4395;48.554;8.820;2023-05-21T10:29:58;95481.06;;;25.92;63.11
8717;BME280;4395;48.554;8.820;2023-05-21T10:32:02;95475.81;;;26.03;63.55
8717;BME280;4395;48.554;8.820;2023-05-21T10:34:07;95482.63;;;26.09;62.10
8717;BME280;4395;48.554;8.820;2023-05-21T10:36:12;95471.44;;;26.37;64.06
8717;BME280;4395;48.554;8.820;2023-05-21T10:38:18;95466.91;;;26.48;61.55
8717;BME280;4395;48.554;8.820;2023-05-21T10:40:21;95473.06;;;26.61;61.40
8717;BME280;4395;48.554;8.820;2023-05-21T10:42:49;95474.38;;;26.09;62.87
8717;BME280;4395;48.554;8.820;2023-05-21T10:45:07;95469.66;;;25.08;68.77
8717;BME280;4395;48.554;8.820;2023-05-21T10:47:32;95470.75;;;25.54;65.88
8717;BME280;4395;48.554;8.820;2023-05-21T10:49:57;95467.28;;;26.27;64.76
8717;BME280;4395;48.554;8.820;2023-05-21T10:52:11;95463.28;;;26.86;62.57
8717;BME280;4395;48.554;8.820;2023-05-21T10:54:41;95463.81;;;27.14;58.65
8717;BME280;4395;48.554;8.820;2023-05-21T10:56:56;95458.31;;;27.41;57.86
8717;BME280;4395;48.554;8.820;2023-05-21T10:59:11;95430.75;;;27.67;56.76
8717;BME280;4395;48.554;8.820;2023-05-21T11:01:22;95461.72;;;27.83;56.91
8717;BME280;4395;48.554;8.820;2023-05-21T11:03:28;95461.44;;;28.22;54.54
8717;BME280;4395;48.554;8.820;2023-05-21T11:05:37;95334.22;;;27.44;53.14
8717;BME280;4395;48.554;8.820;2023-05-21T11:07:51;95453.75;;;28.38;53.64
8717;BME280;4395;48.554;8.820;2023-05-21T11:13:03;95458.16;;;27.83;55.35
8717;BME280;4395;48.554;8.820;2023-05-21T11:15:08;95457.69;;;28.07;55.21
8717;BME280;4395;48.554;8.820;2023-05-21T11:17:35;95455.81;;;28.15;55.13
8717;BME280;4395;48.554;8.820;2023-05-21T11:19:39;95460.31;;;28.60;52.44